Time;durP1;ratioP1;P1;durP2;ratioP2;P2;SDS_P1;SDS_P2;PMS_P1;PMS_P2;Temp;Humidity;BMP_temperature;BMP_pressure;BME280_temperature;BME280_humidity;BME280_pressure;Samples;Min_cycle;Max_cycle;Signal;HPM_P1;HPM_P2
2021/06/20 00:00:49;;;;;;;16.73;8.30;;;;;;;21.10;95.18;100607.38;6222634;28;20073;-77
2021/06/20 00:03:51;;;;;;;12.20;8.02;;;;;;;21.02;95.59;100600.97;6222909;28;20046;-77
2021/06/20 00:06:52;;;;;;;13.73;7.32;;;;;;;21.08;95.46;100596.88;6222422;28;20050;-76
2021/06/20 00:09:54;;;;;;;13.25;7.65;;;;;;;21.05;95.67;100593.66;6223269;28;20050;-77
2021/06/20 00:12:56;;;;;;;13.43;8.25;;;;;;;20.92;96.11;100608.22;6222538;28;20053;-77
2021/06/20 00:15:59;;;;;;;11.15;7.38;;;;;;;20.99;96.23;100614.66;6222508;28;20049;-77
2021/06/20 00:19:01;;;;;;;12.10;7.88;;;;;;;21.03;96.12;100608.00;6222140;28;20049;-77
2021/06/20 00:22:02;;;;;;;12.80;8.82;;;;;;;20.98;96.28;100622.78;6222530;28;20420;-76
2021/06/20 00:25:06;;;;;;;14.43;8.20;;;;;;;21.05;96.05;100625.72;6222484;28;20057;-77
2021/06/20 00:28:08;;;;;;;14.05;7.65;;;;;;;20.98;96.05;100598.75;6222408;28;20061;-77
2021/06/20 00:31:11;;;;;;;13.77;8.38;;;;;;;20.89;96.46;100584.50;6222480;28;20050;-77
2021/06/20 00:34:12;;;;;;;12.55;8.25;;;;;;;20.82;96.88;100572.72;6222382;28;20053;-77
2021/06/20 00:37:14;;;;;;;12.00;8.38;;;;;;;20.74;97.36;100560.13;6222079;28;20053;-77
2021/06/20 00:40:17;;;;;;;16.15;8.50;;;;;;;20.77;96.95;100567.00;6222466;28;20477;-77
2021/06/20 00:43:19;;;;;;;11.90;7.60;;;;;;;20.74;97.50;100588.66;6222314;28;20065;-77
2021/06/20 00:46:21;;;;;;;8.27;7.43;;;;;;;20.80;97.23;100585.38;6221988;28;20099;-77
2021/06/20 00:49:23;;;;;;;15.85;8.35;;;;;;;20.77;97.03;100599.06;6222293;28;20056;-77
2021/06/20 00:52:24;;;;;;;13.40;7.90;;;;;;;20.90;96.72;100585.34;6222190;28;20061;-77
2021/06/20 00:55:27;;;;;;;11.48;7.47;;;;;;;20.95;96.78;100593.72;6222055;28;20579;-77
2021/06/20 00:58:29;;;;;;;12.88;7.90;;;;;;;21.05;96.00;100586.47;6219747;28;20132;-77
2021/06/20 01:01:33;;;;;;;9.77;7.15;;;;;;;21.09;95.79;100595.03;6222128;28;20042;-77
2021/06/20 01:04:34;;;;;;;8.43;6.60;;;;;;;21.14;95.33;100590.06;6226716;28;20054;-77
2021/06/20 01:07:36;;;;;;;10.55;6.97;;;;;;;21.09;95.17;100581.66;6226753;28;20497;-77
2021/06/20 01:10:38;;;;;;;11.93;7.13;;;;;;;21.15;94.14;100576.53;6226449;28;20064;-77
2021/06/20 01:13:39;;;;;;;9.77;6.82;;;;;;;21.14;94.61;100577.53;6226613;28;20050;-77
2021/06/20 01:16:42;;;;;;;8.82;6.00;;;;;;;21.21;93.83;100569.72;6225944;28;20046;-76
2021/06/20 01:19:44;;;;;;;11.68;6.25;;;;;;;21.29;93.56;100559.09;6226439;28;20057;-77
2021/06/20 01:22:49;;;;;;;10.57;6.13;;;;;;;21.32;92.34;100548.13;6226494;28;20052;-77
2021/06/20 01:25:51;;;;;;;8.23;5.40;;;;;;;21.32;91.65;100526.75;6226309;28;20050;-77
2021/06/20 01:29:02;;;;;;;6.68;5.05;;;;;;;21.35;89.51;100528.25;6225846;28;20509;-77
2021/06/20 01:32:05;;;;;;;6.45;4.38;;;;;;;21.45;88.55;100518.31;6226312;28;20057;-77
2021/06/20 01:35:09;;;;;;;10.68;4.82;;;;;;;21.50;87.12;100516.00;6226079;28;20111;-77
2021/06/20 01:38:12;;;;;;;6.78;4.90;;;;;;;21.53;87.02;100521.03;6226200;28;20049;-77
2021/06/20 01:41:13;;;;;;;7.35;4.53;;;;;;;21.61;85.94;100514.88;6225947;28;20052;-77
2021/06/20 01:44:15;;;;;;;12.50;4.78;;;;;;;21.63;85.28;100508.38;6226167;28;20050;-77
2021/06/20 01:47:17;;;;;;;10.13;4.60;;;;;;;21.74;84.47;100512.59;6225555;28;20516;-78
2021/06/20 01:50:18;;;;;;;8.00;4.70;;;;;;;21.81;84.20;100505.63;6226030;28;20456;-77
2021/06/20 01:53:21;;;;;;;6.47;4.68;;;;;;;21.84;84.47;100499.09;6225583;28;20060;-77
2021/06/20 01:56:23;;;;;;;8.05;4.78;;;;;;;21.88;85.93;100511.16;6225241;28;20136;-78
2021/06/20 01:59:24;;;;;;;7.32;5.43;;;;;;;21.85;88.24;100500.81;6225647;28;20057;-78
2021/06/20 02:02:28;;;;;;;9.68;5.32;;;;;;;21.85;89.39;100504.31;6225311;28;20489;-78
2021/06/20 02:05:29;;;;;;;6.35;5.43;;;;;;;21.84;91.25;100494.59;6225522;28;20053;-78
2021/06/20 02:08:33;;;;;;;8.57;6.40;;;;;;;21.78;93.61;100484.53;6224738;28;20041;-78
2021/06/20 02:11:34;;;;;;;10.32;6.20;;;;;;;21.69;95.46;100472.97;6225447;28;20054;-78
2021/06/20 02:14:38;;;;;;;9.88;6.13;;;;;;;21.59;96.71;100463.41;6225438;28;20081;-78
2021/06/20 02:17:41;;;;;;;10.70;6.00;;;;;;;21.52;97.87;100453.31;6224589;28;20049;-78
2021/06/20 02:20:42;;;;;;;13.63;6.55;;;;;;;21.44;99.66;100453.31;6225213;28;20046;-78
2021/06/20 02:23:45;;;;;;;16.00;7.55;;;;;;;21.38;100.00;100451.25;6225400;28;20105;-77
2021/06/20 02:26:46;;;;;;;11.68;7.30;;;;;;;21.31;100.00;100446.69;6224649;28;20057;-77
2021/06/20 02:29:51;;;;;;;13.05;7.75;;;;;;;21.27;100.00;100467.53;6225179;28;20061;-77
2021/06/20 02:32:54;;;;;;;11.07;7.40;;;;;;;21.30;100.00;100630.25;6225206;28;20056;-76
2021/06/20 02:35:55;;;;;;;7.65;6.10;;;;;;;21.10;100.00;100610.06;6224893;28;20045;-77
2021/06/20 02:38:58;;;;;;;12.20;7.10;;;;;;;20.93;100.00;100649.13;6225031;28;20050;-77
2021/06/20 02:41:59;;;;;;;16.83;6.05;;;;;;;20.78;100.00;100649.66;6224670;28;20054;-76
2021/06/20 02:45:01;;;;;;;5.80;4.75;;;;;;;20.48;100.00;100661.50;6225031;28;20054;-77
2021/06/20 02:48:03;;;;;;;6.78;4.35;;;;;;;20.23;100.00;100660.31;6225503;28;20077;-77
2021/06/20 02:51:05;;;;;;;14.40;4.68;;;;;;;20.07;100.00;100661.91;6225472;28;20073;-77
2021/06/20 02:54:07;;;;;;;9.88;4.18;;;;;;;19.85;100.00;100687.06;6224871;28;20061;-76
2021/06/20 02:57:09;;;;;;;19.75;4.28;;;;;;;19.72;100.00;100672.25;6223973;28;20046;-76
2021/06/20 03:00:11;;;;;;;11.93;3.85;;;;;;;19.48;100.00;100662.00;6223975;28;20049;-75
2021/06/20 03:03:12;;;;;;;11.88;2.72;;;;;;;19.20;100.00;100634.34;6223836;28;20050;-77
2021/06/20 03:06:15;;;;;;;15.68;3.55;;;;;;;19.08;100.00;100637.31;6227581;28;20061;-78
2021/06/20 03:09:17;;;;;;;9.57;3.22;;;;;;;19.01;100.00;100640.50;6227366;28;20046;-78
2021/06/20 03:12:19;;;;;;;16.55;3.45;;;;;;;19.00;100.00;100646.00;6226853;28;20050;-78
2021/06/20 03:15:21;;;;;;;13.32;3.80;;;;;;;19.06;100.00;100655.25;6226266;28;20116;-79
2021/06/20 03:18:22;;;;;;;11.77;3.67;;;;;;;19.15;100.00;100633.94;6225236;28;20077;-78
2021/06/20 03:21:24;;;;;;;9.25;2.95;;;;;;;19.11;100.00;100602.38;6224822;28;20058;-79
2021/06/20 03:24:27;;;;;;;10.07;3.40;;;;;;;19.13;100.00;100574.63;6225541;28;20054;-78
2021/06/20 03:27:28;;;;;;;12.32;4.13;;;;;;;19.10;100.00;100552.75;6223599;28;20329;-79
2021/06/20 03:30:29;;;;;;;8.90;3.00;;;;;;;19.13;100.00;100541.84;6224265;28;20050;-78
2021/06/20 03:33:31;;;;;;;7.65;3.17;;;;;;;19.05;100.00;100536.38;6224664;28;20046;-79
2021/06/20 03:36:33;;;;;;;8.45;3.63;;;;;;;19.02;100.00;100503.69;6224875;28;20081;-79
2021/06/20 03:39:36;;;;;;;21.48;3.67;;;;;;;19.12;100.00;100537.47;6225601;28;20046;-79
2021/06/20 03:42:37;;;;;;;16.15;4.28;;;;;;;19.17;100.00;100533.41;6225682;28;20046;-79
2021/06/20 03:45:40;;;;;;;12.15;3.75;;;;;;;19.22;100.00;100562.28;6224847;28;20046;-79
2021/06/20 03:48:41;;;;;;;8.55;3.67;;;;;;;19.21;100.00;100582.78;6224642;28;20053;-79
2021/06/20 03:51:43;;;;;;;10.02;3.17;;;;;;;19.10;100.00;100574.91;6224657;28;20085;-79
2021/06/20 03:54:50;;;;;;;10.18;3.33;;;;;;;19.08;100.00;100566.22;6224917;28;20536;-79
2021/06/20 03:57:51;;;;;;;14.60;4.50;;;;;;;19.13;100.00;100571.13;6225933;28;20052;-79
2021/06/20 04:00:52;;;;;;;6.85;2.97;;;;;;;19.17;100.00;100559.22;6225737;28;20061;-79
2021/06/20 04:03:54;;;;;;;10.02;3.90;;;;;;;19.11;100.00;100562.44;6225293;28;20053;-80
2021/06/20 04:06:55;;;;;;;13.25;3.85;;;;;;;19.07;100.00;100550.38;6224900;28;20061;-79
2021/06/20 04:09:58;;;;;;;6.68;2.65;;;;;;;18.97;100.00;100534.41;6224905;28;20057;-79
2021/06/20 04:13:00;;;;;;;14.15;3.42;;;;;;;18.99;100.00;100537.78;6225828;28;20057;-79
2021/06/20 04:16:01;;;;;;;9.50;2.60;;;;;;;19.01;100.00;100487.84;6225137;28;20160;-80
2021/06/20 04:19:03;;;;;;;9.18;3.15;;;;;;;19.01;100.00;100475.38;6225374;28;20045;-79
2021/06/20 04:22:04;;;;;;;9.88;2.72;;;;;;;19.08;100.00;100449.03;6224283;28;20050;-79
2021/06/20 04:25:08;;;;;;;12.30;3.17;;;;;;;19.07;100.00;100423.34;6225461;28;20449;-80
2021/06/20 04:28:09;;;;;;;8.43;3.05;;;;;;;19.14;100.00;100437.78;6224681;28;20061;-79
2021/06/20 04:31:10;;;;;;;9.75;2.85;;;;;;;19.04;100.00;100388.19;6224666;28;20053;-78
2021/06/20 04:34:12;;;;;;;8.18;3.00;;;;;;;18.93;100.00;100376.72;6229953;28;20053;-80
2021/06/20 04:37:13;;;;;;;11.40;3.47;;;;;;;19.04;100.00;100372.22;6229605;28;20068;-79
2021/06/20 04:40:19;;;;;;;8.50;2.83;;;;;;;19.11;100.00;100399.94;6229431;28;20050;-79
2021/06/20 04:43:39;;;;;;;11.60;3.33;;;;;;;19.11;100.00;100424.75;6230016;28;20081;-79
2021/06/20 04:46:40;;;;;;;12.13;3.17;;;;;;;19.04;100.00;100431.66;6229468;28;20046;-80
2021/06/20 04:49:42;;;;;;;8.10;2.63;;;;;;;19.06;100.00;100442.16;6230066;28;20493;-80
2021/06/20 04:52:44;;;;;;;11.02;3.22;;;;;;;19.01;100.00;100439.91;6229271;28;20042;-80
2021/06/20 04:55:46;;;;;;;10.93;2.72;;;;;;;18.99;100.00;100449.88;6229686;28;20050;-80
2021/06/20 04:58:48;;;;;;;8.45;2.97;;;;;;;18.94;100.00;100455.66;6229156;28;20049;-79
2021/06/20 05:01:49;;;;;;;9.30;2.83;;;;;;;18.96;100.00;100440.34;6228183;28;20061;-80
2021/06/20 05:04:51;;;;;;;6.78;2.63;;;;;;;18.93;100.00;100442.44;6228095;28;20049;-80
2021/06/20 05:07:52;;;;;;;7.78;2.85;;;;;;;18.93;100.00;100459.28;6228007;28;20489;-79
2021/06/20 05:10:55;;;;;;;10.90;3.60;;;;;;;18.97;100.00;100470.47;6227755;28;20050;-79
2021/06/20 05:13:56;;;;;;;8.35;3.05;;;;;;;18.97;100.00;100470.47;6227452;28;20046;-79
2021/06/20 05:16:58;;;;;;;10.90;3.72;;;;;;;18.93;100.00;100461.94;6227332;28;20054;-79
2021/06/20 05:19:59;;;;;;;8.15;3.17;;;;;;;18.95;100.00;100459.97;6227140;28;20060;-79
2021/06/20 05:23:00;;;;;;;9.05;3.28;;;;;;;18.94;100.00;100455.66;6227498;28;20049;-80
2021/06/20 05:26:03;;;;;;;9.88;3.70;;;;;;;18.99;100.00;100452.56;6227146;28;20053;-79
2021/06/20 05:29:04;;;;;;;12.07;3.42;;;;;;;19.06;100.00;100455.47;6226932;28;20060;-79
2021/06/20 05:32:07;;;;;;;10.27;3.47;;;;;;;19.02;100.00;100466.41;6226949;28;20054;-79
2021/06/20 05:35:08;;;;;;;8.57;3.47;;;;;;;19.05;100.00;100461.78;6226726;28;20050;-79
2021/06/20 05:38:10;;;;;;;11.10;3.42;;;;;;;19.10;100.00;100460.38;6226453;28;20049;-79
2021/06/20 05:41:13;;;;;;;9.07;3.33;;;;;;;19.12;100.00;100444.22;6226468;28;20053;-79
2021/06/20 05:44:14;;;;;;;9.85;3.17;;;;;;;19.22;100.00;100450.41;6225871;28;20050;-79
2021/06/20 05:47:16;;;;;;;7.80;3.33;;;;;;;19.24;100.00;100451.06;6225981;28;20508;-79
2021/06/20 05:50:17;;;;;;;10.68;3.30;;;;;;;19.24;100.00;100456.41;6226652;28;20501;-79
2021/06/20 05:53:18;;;;;;;10.85;3.45;;;;;;;19.29;100.00;100461.28;6226106;28;20046;-80
2021/06/20 05:56:21;;;;;;;11.73;3.47;;;;;;;19.32;100.00;100461.84;6224389;28;20046;-80
2021/06/20 05:59:23;;;;;;;8.65;2.97;;;;;;;19.40;100.00;100464.63;6223883;28;20046;-80
2021/06/20 06:02:24;;;;;;;10.93;3.10;;;;;;;19.39;100.00;100462.09;6224262;28;20516;-80
2021/06/20 06:05:26;;;;;;;8.63;3.50;;;;;;;19.38;100.00;100460.44;6221707;28;20042;-81
2021/06/20 06:08:27;;;;;;;21.15;3.67;;;;;;;19.42;100.00;100461.81;6225048;28;20493;-80
2021/06/20 06:11:30;;;;;;;13.10;3.90;;;;;;;19.38;100.00;100468.41;6225713;28;20042;-80
2021/06/20 06:14:31;;;;;;;24.55;4.18;;;;;;;19.46;100.00;100457.88;6225004;28;20069;-80
2021/06/20 06:17:33;;;;;;;12.02;3.50;;;;;;;19.46;100.00;100464.03;6225682;28;20053;-80
2021/06/20 06:20:34;;;;;;;18.23;3.83;;;;;;;19.56;100.00;100457.84;6225932;28;20060;-81
2021/06/20 06:23:36;;;;;;;12.27;3.85;;;;;;;19.55;100.00;100459.66;6224804;28;20416;-80
2021/06/20 06:26:39;;;;;;;15.40;3.33;;;;;;;19.59;100.00;100455.72;6225315;28;20053;-80
2021/06/20 06:29:40;;;;;;;14.02;2.85;;;;;;;19.65;100.00;100464.97;6225422;28;20405;-79
2021/06/20 06:32:43;;;;;;;8.82;3.05;;;;;;;19.67;100.00;100460.34;6225126;28;20046;-80
2021/06/20 06:35:45;;;;;;;13.10;3.28;;;;;;;19.74;100.00;100461.44;6225258;28;20490;-80
2021/06/20 06:38:46;;;;;;;13.60;3.47;;;;;;;19.78;100.00;100465.47;6224332;28;20049;-80
2021/06/20 06:41:49;;;;;;;10.70;3.72;;;;;;;19.81;100.00;100465.19;6224556;28;20057;-81
2021/06/20 06:44:50;;;;;;;14.00;3.72;;;;;;;19.84;100.00;100475.53;6224806;28;20058;-79
2021/06/20 06:47:51;;;;;;;10.20;3.70;;;;;;;19.88;100.00;100473.44;6223279;28;20065;-79
2021/06/20 06:50:53;;;;;;;10.52;3.80;;;;;;;19.91;100.00;100475.81;6223774;28;20394;-80
2021/06/20 06:53:55;;;;;;;10.90;3.97;;;;;;;20.00;100.00;100493.59;6223938;28;20056;-79
2021/06/20 06:56:58;;;;;;;10.43;4.07;;;;;;;20.14;100.00;100484.25;6224441;28;20042;-81
2021/06/20 07:00:00;;;;;;;18.65;4.00;;;;;;;20.28;100.00;100497.91;6223667;28;20073;-80
2021/06/20 07:03:01;;;;;;;13.13;4.00;;;;;;;20.37;100.00;100496.16;6224244;28;20436;-80
2021/06/20 07:06:03;;;;;;;12.27;3.40;;;;;;;20.41;100.00;100494.88;6224037;28;20054;-80
2021/06/20 07:09:05;;;;;;;14.13;3.55;;;;;;;20.34;100.00;100500.94;6224053;28;20050;-80
2021/06/20 07:12:08;;;;;;;13.70;3.90;;;;;;;20.34;100.00;100522.31;6224802;28;20057;-78
2021/06/20 07:15:11;;;;;;;10.63;4.00;;;;;;;20.25;100.00;100516.88;6224315;28;20437;-79
2021/06/20 07:18:14;;;;;;;14.48;4.00;;;;;;;20.26;100.00;100521.25;6224050;28;20046;-79
2021/06/20 07:21:15;;;;;;;12.15;5.30;;;;;;;20.13;100.00;100526.09;6224187;28;20502;-79
2021/06/20 07:24:17;;;;;;;8.93;4.07;;;;;;;20.10;100.00;100529.03;6224479;28;20053;-81
2021/06/20 07:27:20;;;;;;;10.60;4.95;;;;;;;20.11;100.00;100537.88;6223874;28;20133;-80
2021/06/20 07:30:22;;;;;;;10.80;5.15;;;;;;;20.28;100.00;100529.91;6224346;28;20053;-78
2021/06/20 07:33:24;;;;;;;12.02;5.15;;;;;;;20.27;100.00;100533.59;6223474;28;20492;-79
2021/06/20 07:36:25;;;;;;;8.70;5.38;;;;;;;20.37;100.00;100530.84;6223859;28;20193;-78
2021/06/20 07:39:26;;;;;;;10.38;4.95;;;;;;;20.37;100.00;100530.84;6216014;28;20057;-79
2021/06/20 07:42:29;;;;;;;15.55;6.15;;;;;;;20.31;100.00;100533.31;6219877;28;20046;-80
2021/06/20 07:45:32;;;;;;;13.93;5.70;;;;;;;20.37;100.00;100527.34;6217880;28;20046;-79
2021/06/20 07:48:35;;;;;;;15.05;6.07;;;;;;;20.34;100.00;100532.97;6213726;28;20210;-80
2021/06/20 07:51:36;;;;;;;11.82;6.60;;;;;;;20.62;100.00;100528.44;6224063;28;20046;-77
2021/06/20 07:54:38;;;;;;;16.70;7.38;;;;;;;20.53;100.00;100535.56;6222582;28;20141;-77
2021/06/20 07:57:41;;;;;;;19.20;8.15;;;;;;;20.59;100.00;100534.97;6234222;28;20745;-77
2021/06/20 08:00:43;;;;;;;17.05;6.22;;;;;;;20.62;100.00;100531.13;6237556;28;20049;-78
2021/06/20 08:03:44;;;;;;;17.70;6.53;;;;;;;20.60;100.00;100527.78;6242079;28;20079;-78
2021/06/20 08:06:45;;;;;;;17.25;6.63;;;;;;;20.72;100.00;100534.59;6222360;28;20046;-77
2021/06/20 08:09:47;;;;;;;19.98;7.18;;;;;;;20.76;100.00;100547.47;6222666;28;20050;-78
2021/06/20 08:12:50;;;;;;;17.40;7.05;;;;;;;20.76;100.00;100542.13;6232138;28;20561;-78
2021/06/20 08:15:51;;;;;;;10.45;6.25;;;;;;;21.06;100.00;100545.38;6247352;28;20053;-78
2021/06/20 08:18:53;;;;;;;13.18;6.78;;;;;;;21.24;100.00;100564.06;6247023;28;20045;-78
2021/06/20 08:21:55;;;;;;;10.48;6.15;;;;;;;21.14;100.00;100566.84;6247658;28;20053;-78
2021/06/20 08:24:56;;;;;;;14.75;7.25;;;;;;;21.04;100.00;100571.44;6247034;28;20053;-79
2021/06/20 08:27:59;;;;;;;13.05;6.45;;;;;;;21.09;100.00;100573.66;6247159;28;20054;-79
2021/06/20 08:31:01;;;;;;;10.77;6.18;;;;;;;21.08;100.00;100580.00;6229253;28;20049;-78
2021/06/20 08:34:03;;;;;;;14.90;6.20;;;;;;;21.11;100.00;100588.50;6223183;28;20046;-78
2021/06/20 08:37:04;;;;;;;13.88;5.88;;;;;;;20.97;100.00;100578.38;6224606;28;20046;-78
2021/06/20 08:40:07;;;;;;;13.70;6.60;;;;;;;21.03;100.00;100572.44;6223609;28;20046;-77
2021/06/20 08:43:10;;;;;;;10.90;6.70;;;;;;;21.03;100.00;100575.94;6224993;28;20049;-78
2021/06/20 08:46:11;;;;;;;13.48;6.60;;;;;;;21.02;100.00;100582.25;6223848;28;20050;-78
2021/06/20 08:49:14;;;;;;;14.68;5.57;;;;;;;21.09;100.00;100584.34;6222615;28;20049;-78
2021/06/20 08:52:15;;;;;;;15.20;6.63;;;;;;;21.21;100.00;100588.44;6222250;28;20069;-79
2021/06/20 08:55:17;;;;;;;9.38;5.78;;;;;;;21.26;99.18;100583.47;6222511;28;20050;-78
2021/06/20 08:58:22;;;;;;;11.07;5.97;;;;;;;21.29;98.26;100584.00;6222527;28;20046;-78
2021/06/20 09:01:25;;;;;;;14.63;6.60;;;;;;;21.36;100.00;100591.44;6223381;28;20057;-77
2021/06/20 09:04:28;;;;;;;13.20;5.53;;;;;;;21.47;97.97;100591.16;6223648;28;20410;-78
2021/06/20 09:07:35;;;;;;;13.20;5.70;;;;;;;21.59;98.46;100592.59;6222484;28;20057;-77
2021/06/20 09:10:37;;;;;;;10.75;5.80;;;;;;;21.73;93.84;100592.03;6222183;28;20057;-78
2021/06/20 09:13:39;;;;;;;19.60;5.20;;;;;;;21.78;94.31;100592.38;6221880;28;20056;-78
2021/06/20 09:16:47;;;;;;;10.27;5.28;;;;;;;21.98;91.35;100594.81;6220653;28;20397;-76
2021/06/20 09:19:48;;;;;;;7.57;4.90;;;;;;;22.13;86.98;100593.28;6222575;28;20053;-79
2021/06/20 09:22:56;;;;;;;7.78;4.78;;;;;;;21.89;88.88;100588.63;6229860;28;20050;-78
2021/06/20 09:26:00;;;;;;;7.78;4.53;;;;;;;22.06;84.97;100594.03;6225000;28;20061;-76
2021/06/20 09:29:03;;;;;;;9.07;4.35;;;;;;;21.97;85.72;100594.00;6228491;28;20053;-79
2021/06/20 09:32:06;;;;;;;8.65;5.10;;;;;;;22.07;87.75;100590.34;6243759;28;20053;-77
2021/06/20 09:35:09;;;;;;;15.88;4.88;;;;;;;22.21;86.91;100587.97;6243291;28;20046;-78
2021/06/20 09:38:15;;;;;;;10.70;4.82;;;;;;;22.27;86.81;100579.28;6230844;28;20050;-77
2021/06/20 09:41:17;;;;;;;9.82;3.65;;;;;;;22.54;79.82;100599.63;6230463;28;20057;-77
2021/06/20 09:44:20;;;;;;;7.60;3.05;;;;;;;22.82;77.98;100585.94;6226293;28;20057;-78
2021/06/20 09:47:25;;;;;;;8.90;3.85;;;;;;;22.71;81.64;100583.56;6250768;28;20057;-78
2021/06/20 09:50:34;;;;;;;5.15;3.33;;;;;;;22.61;80.46;100574.84;6250980;28;20064;-77
2021/06/20 09:53:38;;;;;;;3.63;2.75;;;;;;;22.60;78.95;100565.97;6233220;28;20134;-77
2021/06/20 09:56:41;;;;;;;4.53;2.70;;;;;;;22.60;76.85;100589.25;6225537;28;20050;-76
2021/06/20 09:59:56;;;;;;;7.63;2.92;;;;;;;22.70;71.56;100587.25;6224597;28;20061;-77
2021/06/20 10:02:57;;;;;;;4.53;2.38;;;;;;;23.00;69.33;100599.22;6229758;28;20077;-76
2021/06/20 10:05:58;;;;;;;5.30;2.70;;;;;;;22.88;69.52;100593.31;6223727;28;20493;-76
2021/06/20 10:09:00;;;;;;;5.25;2.50;;;;;;;22.91;68.14;100581.47;6224270;28;20544;-77
2021/06/20 10:12:02;;;;;;;5.60;2.60;;;;;;;22.90;69.43;100610.13;6225195;28;20053;-76
2021/06/20 10:15:12;;;;;;;3.45;2.45;;;;;;;23.03;69.27;100593.56;6225009;28;20050;-76
2021/06/20 10:18:14;;;;;;;4.40;2.80;;;;;;;23.24;69.69;100593.88;6224758;28;20128;-76
2021/06/20 10:21:27;;;;;;;4.93;2.50;;;;;;;22.96;69.33;100604.09;6224824;28;20068;-76
2021/06/20 10:24:29;;;;;;;8.23;2.72;;;;;;;22.95;69.67;100610.47;6225119;28;20497;-75
2021/06/20 10:27:32;;;;;;;3.55;2.55;;;;;;;22.89;69.85;100607.56;6225082;28;20421;-76
2021/06/20 10:30:36;;;;;;;5.10;2.55;;;;;;;22.92;70.88;100610.78;6224455;28;20050;-77
2021/06/20 10:33:38;;;;;;;5.30;2.70;;;;;;;22.87;70.94;100598.84;6225323;28;20050;-76
2021/06/20 10:36:45;;;;;;;5.53;2.53;;;;;;;23.00;70.34;100605.44;6224553;28;20533;-77
2021/06/20 10:39:50;;;;;;;7.45;2.38;;;;;;;23.11;70.81;100631.06;6224970;28;20077;-77
2021/06/20 10:42:53;;;;;;;5.43;2.80;;;;;;;23.07;70.50;100610.94;6224735;28;20073;-76
2021/06/20 10:45:56;;;;;;;4.70;2.28;;;;;;;23.26;70.32;100613.34;6224121;28;20042;-77
2021/06/20 10:48:58;;;;;;;6.07;2.70;;;;;;;23.48;68.82;100608.28;6223489;28;20049;-76
2021/06/20 10:52:00;;;;;;;2.90;2.30;;;;;;;23.77;67.29;100603.25;6224359;28;20046;-77
2021/06/20 10:55:13;;;;;;;6.35;2.60;;;;;;;24.02;65.24;100608.53;6224214;28;20057;-76
2021/06/20 10:58:23;;;;;;;4.72;2.30;;;;;;;23.98;65.98;100597.31;6222604;28;20417;-76
2021/06/20 11:01:29;;;;;;;7.10;2.35;;;;;;;23.98;64.83;100589.28;6220264;28;20088;-76
2021/06/20 11:04:40;;;;;;;2.95;2.10;;;;;;;24.15;67.37;100589.19;6213608;28;20046;-76
2021/06/20 11:07:41;;;;;;;4.75;2.10;;;;;;;24.25;64.69;100589.81;6223457;28;20090;-77
2021/06/20 11:10:43;;;;;;;7.45;2.22;;;;;;;24.42;66.88;100585.25;6223424;28;20057;-77
2021/06/20 11:13:47;;;;;;;5.97;2.53;;;;;;;24.57;62.48;100601.44;6223867;28;20050;-75
2021/06/20 11:16:51;;;;;;;3.47;2.22;;;;;;;24.61;63.55;100574.03;6223776;28;20185;-77
2021/06/20 11:19:52;;;;;;;3.75;1.77;;;;;;;24.89;63.93;100576.22;6223234;28;20413;-79
2021/06/20 11:22:57;;;;;;;5.88;1.85;;;;;;;24.98;64.02;100576.00;6223546;28;20493;-76
2021/06/20 11:26:00;;;;;;;5.32;2.13;;;;;;;25.17;61.81;100579.25;6224635;28;20441;-77
2021/06/20 11:29:06;;;;;;;8.88;2.40;;;;;;;25.33;59.14;100578.25;6222954;28;20061;-77
2021/06/20 11:32:15;;;;;;;3.33;2.33;;;;;;;25.67;63.00;100577.75;6224755;28;20053;-78
2021/06/20 11:35:17;;;;;;;8.57;2.45;;;;;;;25.61;59.94;100583.84;6223728;28;20053;-77
2021/06/20 11:38:28;;;;;;;3.60;2.28;;;;;;;25.60;59.42;100598.34;6222888;28;20057;-76
2021/06/20 11:41:30;;;;;;;7.93;1.95;;;;;;;25.32;59.46;100590.03;6222159;28;20513;-76
2021/06/20 11:44:31;;;;;;;3.55;2.00;;;;;;;25.11;58.38;100596.91;6222721;28;20049;-77
2021/06/20 11:47:35;;;;;;;6.70;1.75;;;;;;;25.61;58.56;100608.09;6220293;28;20061;-77
2021/06/20 11:50:39;;;;;;;3.97;2.28;;;;;;;26.24;56.07;100604.06;6216785;28;20045;-76
2021/06/20 11:53:40;;;;;;;2.80;2.00;;;;;;;26.36;54.29;100599.03;6221073;28;20504;-75
2021/06/20 11:56:45;;;;;;;5.13;2.17;;;;;;;26.79;53.35;100584.59;6221342;28;20057;-77
2021/06/20 11:59:46;;;;;;;4.95;1.88;;;;;;;27.19;55.73;100578.78;6220609;28;20462;-76
2021/06/20 12:03:00;;;;;;;7.70;1.70;;;;;;;27.12;53.03;100565.25;6221356;28;20060;-76
2021/06/20 12:06:04;;;;;;;4.20;1.67;;;;;;;27.39;52.92;100571.72;6221984;28;20436;-77
2021/06/20 12:09:07;;;;;;;4.10;1.77;;;;;;;27.54;48.36;100579.69;6222560;28;20056;-77
2021/06/20 12:12:12;;;;;;;3.90;1.50;;;;;;;27.35;53.14;100581.22;6222570;28;20050;-77
2021/06/20 12:15:14;;;;;;;2.45;1.52;;;;;;;27.10;50.42;100580.78;6222835;28;20076;-77
2021/06/20 12:18:16;;;;;;;3.75;1.10;;;;;;;26.87;53.08;100585.53;6221708;28;20049;-77
2021/06/20 12:21:25;;;;;;;4.80;1.40;;;;;;;26.91;51.05;100587.66;6222892;28;20045;-77
2021/06/20 12:24:35;;;;;;;1.63;1.23;;;;;;;26.67;52.10;100593.41;6222439;28;20525;-77
2021/06/20 12:27:38;;;;;;;5.07;1.42;;;;;;;26.56;53.00;100600.13;6222148;28;20050;-76
2021/06/20 12:30:41;;;;;;;5.45;1.67;;;;;;;27.33;50.05;100585.13;6222666;28;20050;-77
2021/06/20 12:33:44;;;;;;;2.22;1.15;;;;;;;27.51;50.79;100596.28;6222259;28;20049;-76
2021/06/20 12:36:45;;;;;;;10.65;1.00;;;;;;;27.24;48.79;100585.28;6221675;28;20429;-76
2021/06/20 12:39:50;;;;;;;6.18;1.25;;;;;;;27.10;51.23;100590.75;6221241;28;20062;-77
2021/06/20 12:42:52;;;;;;;2.78;1.00;;;;;;;27.26;50.83;100588.63;6222631;28;20053;-77
2021/06/20 12:46:00;;;;;;;3.00;1.40;;;;;;;26.77;50.75;100597.47;6221692;28;20046;-77
2021/06/20 12:49:08;;;;;;;2.85;1.25;;;;;;;26.44;50.08;100601.66;6222845;28;20058;-76
2021/06/20 12:52:10;;;;;;;1.95;1.08;;;;;;;26.99;50.03;100602.88;6222846;28;20054;-78
2021/06/20 12:55:15;;;;;;;5.68;1.05;;;;;;;26.80;49.57;100602.47;6227694;28;20493;-77
2021/06/20 12:58:17;;;;;;;2.33;1.20;;;;;;;26.45;52.68;100608.72;6225732;28;20042;-77
2021/06/20 13:01:18;;;;;;;3.92;0.95;;;;;;;26.30;52.75;100617.63;6219089;28;20046;-76
2021/06/20 13:04:21;;;;;;;3.88;1.50;;;;;;;26.06;52.48;100617.91;6230555;28;20061;-77
2021/06/20 13:07:37;;;;;;;7.25;1.30;;;;;;;26.33;52.36;100620.94;6228592;28;20053;-78
2021/06/20 13:10:41;;;;;;;2.70;1.10;;;;;;;27.18;51.75;100607.66;6219489;28;20046;-78
2021/06/20 13:13:43;;;;;;;2.13;1.20;;;;;;;27.46;49.18;100604.13;6226212;28;20046;-78
2021/06/20 13:16:46;;;;;;;4.97;1.10;;;;;;;27.12;49.04;100611.13;6227223;28;20510;-76
2021/06/20 13:19:49;;;;;;;3.60;1.15;;;;;;;26.97;49.62;100602.22;6226873;28;20050;-76
2021/06/20 13:22:52;;;;;;;6.25;1.17;;;;;;;27.23;48.41;100594.41;6227218;28;20049;-77
2021/06/20 13:25:53;;;;;;;4.72;1.20;;;;;;;26.97;51.40;100602.22;6213534;28;20045;-76
2021/06/20 13:28:55;;;;;;;2.58;1.15;;;;;;;26.62;51.81;100601.25;6220642;28;20049;-77
2021/06/20 13:31:56;;;;;;;1.15;1.00;;;;;;;26.91;51.28;100593.03;6223481;28;20052;-76
2021/06/20 13:34:59;;;;;;;3.50;0.95;;;;;;;27.34;50.66;100593.03;6219772;28;20061;-77
2021/06/20 13:38:00;;;;;;;1.67;1.10;;;;;;;26.93;51.38;100587.44;6217567;28;20053;-77
2021/06/20 13:41:02;;;;;;;5.72;1.00;;;;;;;27.31;50.14;100575.38;6225769;28;20057;-76
2021/06/20 13:44:03;;;;;;;1.85;1.00;;;;;;;27.38;49.88;100583.50;6215996;28;20072;-77
2021/06/20 13:47:05;;;;;;;4.63;1.27;;;;;;;27.58;51.38;100582.84;6211553;28;20143;-78
2021/06/20 13:50:09;;;;;;;1.40;1.20;;;;;;;27.91;48.37;100578.50;6210705;28;20046;-77
2021/06/20 13:53:10;;;;;;;1.35;1.00;;;;;;;27.89;48.54;100571.63;6216397;28;20048;-77
2021/06/20 13:56:12;;;;;;;2.58;1.17;;;;;;;27.95;48.36;100568.97;6216490;28;20042;-77
2021/06/20 13:59:13;;;;;;;3.90;0.90;;;;;;;28.07;46.77;100555.75;6217138;28;20433;-77